Time;durP1;ratioP1;P1;durP2;ratioP2;P2;SDS_P1;SDS_P2;PMS_P1;PMS_P2;Temp;Humidity;BMP_temperature;BMP_pressure;BME280_temperature;BME280_humidity;BME280_pressure;Samples;Min_cycle;Max_cycle;Signal;HPM_P1;HPM_P2
2021/05/13 00:00:10;;;;;;;10.70;4.03;;;;;;;12.52;67.54;100868.44;4955255;28;20098;-51
2021/05/13 00:02:45;;;;;;;12.30;4.35;;;;;;;12.45;67.47;100868.75;4955156;28;20059;-55
2021/05/13 00:05:13;;;;;;;9.45;3.35;;;;;;;12.38;67.84;100864.69;4954971;28;20058;-54
2021/05/13 00:07:42;;;;;;;9.23;3.80;;;;;;;12.34;68.81;100867.97;4954756;28;20051;-55
2021/05/13 00:10:14;;;;;;;11.90;3.70;;;;;;;12.39;68.43;100860.84;4954490;28;20466;-53
2021/05/13 00:15:15;;;;;;;8.77;3.13;;;;;;;12.39;68.03;100863.56;4955165;28;20043;-53
2021/05/13 00:17:43;;;;;;;7.80;3.88;;;;;;;12.40;68.17;100857.84;4954607;28;20044;-52
2021/05/13 00:20:15;;;;;;;8.68;3.35;;;;;;;12.35;67.69;100858.66;4954879;28;20039;-55
2021/05/13 00:22:43;;;;;;;8.65;3.13;;;;;;;12.29;68.71;100858.97;4954775;28;20051;-53
2021/05/13 00:25:11;;;;;;;10.38;3.88;;;;;;;12.29;68.77;100864.41;4954301;28;20051;-53
2021/05/13 00:27:39;;;;;;;9.40;3.60;;;;;;;12.33;67.78;100855.38;4954715;28;20054;-53
2021/05/13 00:30:11;;;;;;;9.73;3.78;;;;;;;12.40;68.06;100859.75;4953607;29;20042;-54
2021/05/13 00:32:40;;;;;;;9.68;3.42;;;;;;;12.47;67.72;100860.28;4954996;28;20047;-52
2021/05/13 00:35:10;;;;;;;11.93;3.85;;;;;;;12.39;68.33;100863.56;4954569;28;20402;-55
2021/05/13 00:37:38;;;;;;;11.93;3.70;;;;;;;12.27;67.64;100866.63;4954596;28;20529;-55
2021/05/13 00:40:07;;;;;;;10.48;3.60;;;;;;;12.20;67.83;100856.00;4954164;28;20058;-56
2021/05/13 00:42:35;;;;;;;8.35;3.42;;;;;;;12.19;68.53;100859.81;4953468;29;20078;-53
2021/05/13 00:45:08;;;;;;;7.32;3.00;;;;;;;12.16;68.00;100860.38;4954104;28;20079;-54
2021/05/13 00:47:43;;;;;;;9.95;3.67;;;;;;;12.13;68.32;100859.00;4954297;28;20123;-54
2021/05/13 00:50:11;;;;;;;9.15;3.42;;;;;;;12.12;68.67;100856.56;4954223;28;20132;-52
2021/05/13 00:52:39;;;;;;;9.48;3.65;;;;;;;12.15;68.63;100853.28;4953600;28;20043;-53
2021/05/13 00:55:09;;;;;;;9.13;3.50;;;;;;;12.17;68.67;100853.00;4954090;28;20610;-52
2021/05/13 00:57:40;;;;;;;10.75;3.53;;;;;;;12.16;68.38;100849.44;4953498;28;20047;-52
2021/05/13 01:00:30;;;;;;;10.15;3.58;;;;;;;12.15;68.21;100848.63;4954397;28;20040;-52
2021/05/13 01:03:05;;;;;;;9.15;4.00;;;;;;;12.17;68.35;100853.00;4953178;29;20051;-53
2021/05/13 01:05:34;;;;;;;10.75;3.67;;;;;;;12.18;68.55;100851.91;4954105;28;20383;-55
2021/05/13 01:08:03;;;;;;;9.35;3.42;;;;;;;12.17;68.03;100853.84;4953162;28;20054;-53
2021/05/13 01:10:32;;;;;;;10.23;3.75;;;;;;;12.18;68.57;100857.38;4953819;28;20109;-52
2021/05/13 01:13:06;;;;;;;8.70;3.47;;;;;;;12.23;67.89;100855.44;4953944;28;20098;-54
2021/05/13 01:15:53;;;;;;;8.32;3.33;;;;;;;12.29;68.09;100859.78;4952856;29;20059;-51
2021/05/13 01:18:23;;;;;;;9.38;4.18;;;;;;;12.27;68.10;100851.06;4953769;28;20039;-52
2021/05/13 01:20:51;;;;;;;9.18;3.60;;;;;;;12.21;68.06;100849.44;4953866;28;20047;-52
2021/05/13 01:23:20;;;;;;;6.80;3.30;;;;;;;12.15;68.05;100843.16;4953330;28;20046;-51
2021/05/13 01:25:53;;;;;;;11.57;3.75;;;;;;;12.07;69.02;100848.38;4953953;28;20051;-51
2021/05/13 01:28:23;;;;;;;9.05;3.55;;;;;;;11.97;69.11;100851.13;4953705;28;20058;-54
2021/05/13 01:30:52;;;;;;;7.07;3.33;;;;;;;11.86;69.74;100844.88;4954202;28;20066;-54
2021/05/13 01:33:21;;;;;;;11.65;3.63;;;;;;;11.78;69.46;100848.94;4953366;28;20035;-51
2021/05/13 01:35:50;;;;;;;9.65;4.00;;;;;;;11.74;69.85;100850.63;4953788;28;20508;-52
2021/05/13 01:38:21;;;;;;;9.43;3.65;;;;;;;11.78;69.66;100848.94;4953552;28;20047;-56
2021/05/13 01:40:58;;;;;;;9.68;3.47;;;;;;;11.83;69.59;100848.94;4953694;28;20098;-53
2021/05/13 01:43:30;;;;;;;11.25;3.20;;;;;;;11.86;69.27;100842.13;4952375;29;20050;-53
2021/05/13 01:45:59;;;;;;;10.75;3.90;;;;;;;11.88;68.84;100848.16;4952405;29;20055;-55
2021/05/13 01:48:28;;;;;;;10.10;3.83;;;;;;;11.88;69.10;100848.97;4953841;28;20482;-54
2021/05/13 01:50:56;;;;;;;9.40;3.42;;;;;;;11.89;69.29;100844.34;4953419;28;20051;-54
2021/05/13 01:53:24;;;;;;;8.50;3.58;;;;;;;11.90;69.05;100835.03;4954601;28;20039;-55
2021/05/13 01:55:52;;;;;;;8.88;3.55;;;;;;;11.90;69.38;100840.50;4953790;28;20043;-54
2021/05/13 01:58:19;;;;;;;11.27;3.92;;;;;;;11.89;69.16;100838.88;4954630;28;20436;-54
2021/05/13 02:00:49;;;;;;;9.25;3.90;;;;;;;11.83;68.95;100837.22;4955516;28;20051;-57
2021/05/13 02:03:17;;;;;;;10.85;4.30;;;;;;;11.73;69.09;100830.66;4955798;28;20090;-54
2021/05/13 02:05:45;;;;;;;10.10;4.07;;;;;;;11.64;70.20;100826.03;4952907;28;20110;-55
2021/05/13 02:08:13;;;;;;;11.02;4.00;;;;;;;11.60;70.19;100825.78;4946295;28;20042;-54
2021/05/13 02:10:40;;;;;;;9.00;3.85;;;;;;;11.61;69.96;100829.31;4956761;28;20059;-52
2021/05/13 02:13:08;;;;;;;11.35;4.35;;;;;;;11.57;70.05;100830.97;4971926;28;20046;-52
2021/05/13 02:15:36;;;;;;;8.68;3.75;;;;;;;11.53;70.29;100822.53;4957024;28;20121;-51
2021/05/13 02:18:04;;;;;;;8.95;4.10;;;;;;;11.47;70.87;100832.63;4957147;28;20388;-53
2021/05/13 02:20:32;;;;;;;7.43;3.65;;;;;;;11.48;70.51;100820.59;4956431;28;20502;-54
2021/05/13 02:23:00;;;;;;;9.80;4.20;;;;;;;11.55;70.79;100817.59;4956864;28;20154;-52
2021/05/13 02:25:36;;;;;;;9.20;3.90;;;;;;;11.62;70.76;100814.59;4956518;28;20454;-52
2021/05/13 02:28:04;;;;;;;9.95;4.13;;;;;;;11.67;70.20;100820.06;4956752;28;20126;-54
2021/05/13 02:30:37;;;;;;;12.55;4.47;;;;;;;11.69;69.80;100823.31;4956583;28;20098;-54
2021/05/13 02:33:10;;;;;;;9.65;4.20;;;;;;;11.66;69.56;100812.94;4956749;28;20051;-54
2021/05/13 02:35:38;;;;;;;9.07;4.10;;;;;;;11.55;69.90;100808.59;4956129;28;20040;-52
2021/05/13 02:38:06;;;;;;;8.82;3.65;;;;;;;11.48;69.98;100808.88;4956621;28;20054;-54
2021/05/13 02:40:34;;;;;;;9.43;3.95;;;;;;;11.48;70.82;100804.25;4955752;28;20055;-54
2021/05/13 02:43:03;;;;;;;9.60;3.67;;;;;;;11.54;70.05;100804.22;4956770;28;20506;-54
2021/05/13 02:45:31;;;;;;;8.18;3.63;;;;;;;11.61;70.24;100799.31;4956669;28;20035;-54
2021/05/13 02:47:59;;;;;;;13.00;4.70;;;;;;;11.67;69.74;100803.69;4956032;28;20047;-53
2021/05/13 02:50:27;;;;;;;9.90;4.43;;;;;;;11.67;69.43;100804.50;4956143;28;20410;-51
2021/05/13 02:52:54;;;;;;;10.15;4.40;;;;;;;11.67;69.62;100803.69;4954936;28;20043;-52
2021/05/13 02:55:24;;;;;;;9.32;4.20;;;;;;;11.67;69.73;100800.94;4956229;28;20959;-54
2021/05/13 02:57:51;;;;;;;8.93;4.20;;;;;;;11.65;69.49;100789.47;4955994;28;20035;-55
2021/05/13 03:02:53;;;;;;;11.25;4.45;;;;;;;11.56;69.51;100785.69;4956193;28;20126;-53
2021/05/13 03:05:28;;;;;;;9.75;4.57;;;;;;;11.42;69.62;100783.50;4956169;28;20098;-55
2021/05/13 03:07:59;;;;;;;9.07;4.40;;;;;;;11.30;70.27;100788.41;4956381;28;20039;-56
2021/05/13 03:13:01;;;;;;;10.70;4.32;;;;;;;11.31;70.96;100765.53;4955852;28;20035;-53
2021/05/13 03:15:29;;;;;;;7.63;4.22;;;;;;;11.39;70.31;100770.41;4955888;28;20443;-54
2021/05/13 03:17:57;;;;;;;9.85;4.35;;;;;;;11.46;70.31;100762.75;4955466;28;20089;-53
2021/05/13 03:20:33;;;;;;;10.25;4.60;;;;;;;11.47;69.63;100767.16;4955072;28;20042;-53
2021/05/13 03:23:01;;;;;;;10.35;4.45;;;;;;;11.46;69.62;100765.50;4956007;28;20498;-53
2021/05/13 03:25:30;;;;;;;12.27;4.55;;;;;;;11.45;69.50;100755.69;4955782;28;20043;-55
2021/05/13 03:28:08;;;;;;;10.13;4.50;;;;;;;11.46;69.65;100757.31;4955863;28;20111;-55
2021/05/13 03:30:41;;;;;;;10.00;4.30;;;;;;;11.48;69.22;100757.84;4955572;28;20402;-53
2021/05/13 03:33:09;;;;;;;10.13;4.32;;;;;;;11.47;69.98;100755.38;4935044;29;20044;-52
2021/05/13 03:35:37;;;;;;;9.63;4.45;;;;;;;11.46;69.35;100754.56;4954601;29;20091;-53
2021/05/13 03:38:07;;;;;;;12.18;5.03;;;;;;;11.41;69.84;100749.13;4970419;28;20043;-54
2021/05/13 03:40:35;;;;;;;9.25;4.95;;;;;;;11.28;69.55;100746.97;4955066;28;20047;-54
2021/05/13 03:43:03;;;;;;;10.82;4.80;;;;;;;11.13;70.09;100755.16;4955367;28;20098;-53
2021/05/13 03:45:31;;;;;;;11.80;4.65;;;;;;;11.01;70.89;100747.25;4955211;28;20102;-53
2021/05/13 03:48:02;;;;;;;10.10;4.43;;;;;;;10.93;70.53;100754.06;4955143;28;20039;-55
2021/05/13 03:50:34;;;;;;;11.70;5.20;;;;;;;10.92;71.02;100754.34;4955167;28;20471;-52
2021/05/13 03:53:04;;;;;;;9.82;4.53;;;;;;;10.97;70.98;100757.91;4955208;28;20078;-53
2021/05/13 03:55:32;;;;;;;10.85;4.63;;;;;;;11.02;70.54;100755.16;4955092;28;20090;-54
2021/05/13 03:58:01;;;;;;;9.52;4.78;;;;;;;10.98;70.65;100758.72;4955423;28;20047;-52
2021/05/13 04:00:38;;;;;;;11.60;4.55;;;;;;;10.87;70.97;100757.88;4955324;28;20073;-52
2021/05/13 04:03:05;;;;;;;9.05;4.60;;;;;;;10.81;71.29;100765.22;4969745;28;20070;-52
2021/05/13 04:05:33;;;;;;;10.30;4.78;;;;;;;10.90;71.40;100764.72;4955069;28;20087;-51
2021/05/13 04:08:03;;;;;;;9.23;4.28;;;;;;;11.03;71.15;100767.69;4955056;28;20050;-53
2021/05/13 04:10:31;;;;;;;9.30;4.07;;;;;;;11.05;70.89;100765.53;4954729;28;20051;-51
2021/05/13 04:13:02;;;;;;;9.82;4.53;;;;;;;11.09;71.00;100771.25;4953823;29;20051;-55
2021/05/13 04:15:49;;;;;;;10.18;4.47;;;;;;;11.11;71.19;100762.78;4954228;28;20397;-53
2021/05/13 04:18:17;;;;;;;9.07;4.85;;;;;;;11.07;70.94;100763.34;4936403;29;20051;-55
2021/05/13 04:20:45;;;;;;;10.88;4.80;;;;;;;11.06;71.01;100759.00;4954857;28;20502;-52
2021/05/13 04:23:13;;;;;;;11.23;5.20;;;;;;;11.04;71.18;100755.72;4954558;28;20138;-52
2021/05/13 04:25:40;;;;;;;13.18;6.07;;;;;;;11.00;71.50;100757.34;4954595;29;20074;-52
2021/05/13 04:28:09;;;;;;;11.93;6.05;;;;;;;10.91;71.79;100755.44;4954958;28;20051;-55
2021/05/13 04:30:36;;;;;;;13.63;6.60;;;;;;;10.82;71.90;100749.69;4953840;28;20130;-51
2021/05/13 04:33:04;;;;;;;11.52;6.30;;;;;;;10.78;72.20;100754.06;4953525;28;20098;-50
2021/05/13 04:35:32;;;;;;;12.38;6.47;;;;;;;10.75;72.49;100743.69;4954722;28;20094;-51
2021/05/13 04:38:00;;;;;;;9.48;5.00;;;;;;;10.74;72.60;100748.34;4954264;28;20051;-54
2021/05/13 04:40:27;;;;;;;9.30;5.05;;;;;;;10.77;72.36;100752.41;4953891;28;20108;-52
2021/05/13 04:42:56;;;;;;;11.38;5.65;;;;;;;10.75;72.25;100752.72;4954209;28;20058;-54
2021/05/13 04:45:25;;;;;;;10.13;5.43;;;;;;;10.77;72.36;100746.97;4953835;28;20047;-54
2021/05/13 04:50:20;;;;;;;10.93;6.40;;;;;;;10.86;72.01;100739.91;4954230;28;20051;-52
2021/05/13 04:52:48;;;;;;;10.45;5.90;;;;;;;10.87;72.46;100746.97;4953111;29;20110;-54
2021/05/13 04:55:16;;;;;;;11.27;5.88;;;;;;;10.91;72.58;100731.72;4952878;29;20043;-54
2021/05/13 04:57:43;;;;;;;11.00;5.70;;;;;;;10.97;72.28;100740.72;4954063;28;20051;-53
2021/05/13 05:00:12;;;;;;;11.55;5.82;;;;;;;11.02;72.51;100724.38;4953653;28;20454;-50
2021/05/13 05:02:40;;;;;;;12.70;5.95;;;;;;;11.08;71.89;100731.44;4953781;28;20047;-55
2021/05/13 05:05:08;;;;;;;9.73;6.00;;;;;;;11.09;72.17;100728.44;4954034;28;20454;-51
2021/05/13 05:07:36;;;;;;;11.52;6.15;;;;;;;11.16;71.79;100732.78;4953675;28;20070;-54
2021/05/13 05:10:04;;;;;;;9.95;6.05;;;;;;;11.17;71.69;100729.81;4953571;28;20047;-53
2021/05/13 05:12:32;;;;;;;10.65;6.65;;;;;;;11.21;72.11;100730.09;4953670;28;20039;-52
2021/05/13 05:15:00;;;;;;;12.70;6.82;;;;;;;11.21;72.04;100724.63;4953144;28;20043;-56
2021/05/13 05:17:27;;;;;;;12.88;6.13;;;;;;;11.20;72.07;100722.97;4953941;28;20490;-54
2021/05/13 05:19:55;;;;;;;10.63;6.25;;;;;;;11.21;72.35;100713.72;4953908;28;20043;-52
2021/05/13 05:22:23;;;;;;;11.68;7.15;;;;;;;11.29;72.00;100718.59;4953667;28;20046;-54
2021/05/13 05:24:51;;;;;;;11.70;7.10;;;;;;;11.29;71.61;100721.34;4953644;28;20118;-52
2021/05/13 05:27:18;;;;;;;10.60;6.88;;;;;;;11.29;71.96;100719.41;4953787;28;20043;-52
2021/05/13 05:29:47;;;;;;;12.55;7.63;;;;;;;11.30;72.02;100718.34;4953369;28;20067;-52
2021/05/13 05:32:14;;;;;;;12.82;7.03;;;;;;;11.27;72.26;100726.25;4953506;28;20051;-50
2021/05/13 05:34:42;;;;;;;11.00;6.97;;;;;;;11.32;72.31;100726.22;4953803;28;20077;-56
2021/05/13 05:37:10;;;;;;;12.27;7.13;;;;;;;11.38;72.48;100725.16;4953801;28;20074;-55
2021/05/13 05:39:38;;;;;;;12.55;6.72;;;;;;;11.43;72.26;100722.41;4953417;28;20085;-51
2021/05/13 05:42:06;;;;;;;14.27;7.28;;;;;;;11.49;72.31;100720.47;4953341;28;20522;-54
2021/05/13 05:44:33;;;;;;;11.52;6.95;;;;;;;11.53;72.45;100716.09;4954594;28;20059;-53
2021/05/13 05:47:01;;;;;;;11.32;6.70;;;;;;;11.57;72.06;100710.88;4957336;28;20069;-55
2021/05/13 05:49:29;;;;;;;13.77;7.68;;;;;;;11.61;72.18;100711.97;4957300;28;20043;-55
2021/05/13 05:51:56;;;;;;;8.43;6.28;;;;;;;11.63;71.98;100717.97;4957296;28;20039;-53
2021/05/13 05:54:25;;;;;;;10.23;6.88;;;;;;;11.68;72.28;100717.97;4957217;28;20051;-53
2021/05/13 05:56:53;;;;;;;10.40;7.38;;;;;;;11.74;71.64;100722.31;4957409;28;20509;-54
2021/05/13 05:59:21;;;;;;;13.52;7.78;;;;;;;11.77;72.08;100716.31;4957256;28;20039;-54
2021/05/13 06:01:49;;;;;;;12.88;7.90;;;;;;;11.76;72.07;100714.69;4957495;28;20047;-53
2021/05/13 06:04:17;;;;;;;13.70;8.20;;;;;;;11.76;72.60;100711.94;4955705;28;20051;-53
2021/05/13 06:06:44;;;;;;;15.73;7.00;;;;;;;11.76;72.37;100714.69;4956159;29;20048;-54
2021/05/13 06:09:12;;;;;;;12.25;8.15;;;;;;;11.79;72.45;100710.56;4956661;28;20541;-54
2021/05/13 06:11:40;;;;;;;11.00;7.35;;;;;;;11.83;72.28;100704.25;4956569;28;20047;-55
2021/05/13 06:14:07;;;;;;;13.60;7.78;;;;;;;11.89;71.65;100703.16;4956831;28;20097;-52
2021/05/13 06:16:35;;;;;;;13.82;8.75;;;;;;;11.94;71.15;100697.69;4956990;28;20490;-49
2021/05/13 06:19:03;;;;;;;13.18;8.68;;;;;;;11.96;71.81;100691.16;4956787;28;20157;-55
2021/05/13 06:21:31;;;;;;;14.68;8.77;;;;;;;11.96;71.47;100688.41;4943320;28;20044;-54
2021/05/13 06:24:00;;;;;;;14.32;8.70;;;;;;;11.92;71.89;100694.41;4956558;28;20300;-50
2021/05/13 06:26:30;;;;;;;13.68;8.38;;;;;;;11.93;72.13;100684.34;4271390;28;10000606;-56
2021/05/13 06:29:03;;;;;;;12.35;8.82;;;;;;;11.97;72.40;100688.13;4942207;29;20035;-55
2021/05/13 06:31:34;;;;;;;15.20;9.52;;;;;;;12.02;72.02;100684.53;4955051;28;20035;-53
2021/05/13 06:34:03;;;;;;;14.32;10.25;;;;;;;12.07;72.19;100681.78;4954584;28;20075;-55
2021/05/13 06:36:31;;;;;;;14.70;10.10;;;;;;;12.09;71.66;100685.88;4954231;28;20126;-54
2021/05/13 06:38:59;;;;;;;18.50;10.40;;;;;;;12.12;71.37;100689.94;4953422;29;20047;-56
2021/05/13 06:41:27;;;;;;;19.20;12.75;;;;;;;12.15;71.86;100687.47;4953831;28;20420;-55
2021/05/13 06:43:54;;;;;;;14.43;9.73;;;;;;;12.20;70.80;100685.84;4954153;28;20066;-55
2021/05/13 06:46:24;;;;;;;16.17;10.77;;;;;;;12.28;70.65;100682.50;4954635;28;20113;-55
2021/05/13 06:48:52;;;;;;;16.23;11.43;;;;;;;12.31;70.70;100677.28;4953999;28;20047;-53
2021/05/13 06:51:21;;;;;;;18.30;12.13;;;;;;;12.35;70.91;100681.06;4954432;28;20086;-53
2021/05/13 06:53:49;;;;;;;17.92;13.13;;;;;;;12.40;71.07;100679.41;4952774;28;20055;-49
2021/05/13 06:56:17;;;;;;;19.40;14.07;;;;;;;12.43;71.17;100679.66;4952948;28;20036;-50
2021/05/13 06:58:48;;;;;;;17.05;12.23;;;;;;;12.48;71.19;100685.09;4955177;28;20090;-51
2021/05/13 07:01:16;;;;;;;22.90;14.23;;;;;;;12.50;71.34;100679.34;4956187;28;20039;-53
2021/05/13 07:03:44;;;;;;;19.50;12.57;;;;;;;12.53;70.55;100684.22;4956131;28;20081;-53
2021/05/13 07:06:12;;;;;;;20.00;12.38;;;;;;;12.56;70.18;100678.22;4956222;28;20505;-55
2021/05/13 07:08:39;;;;;;;21.58;14.18;;;;;;;12.57;69.80;100686.09;4956018;28;20071;-55
2021/05/13 07:11:07;;;;;;;21.20;13.32;;;;;;;12.58;69.90;100681.47;4954922;29;20039;-55
2021/05/13 07:13:36;;;;;;;20.98;15.18;;;;;;;12.60;70.57;100683.91;4955672;28;20043;-54
2021/05/13 07:16:04;;;;;;;21.63;13.32;;;;;;;12.65;70.35;100686.59;4955683;28;20047;-53
2021/05/13 07:18:32;;;;;;;21.02;13.00;;;;;;;12.67;70.05;100679.75;4955690;28;20036;-55
2021/05/13 07:20:59;;;;;;;19.85;14.25;;;;;;;12.68;69.41;100684.13;4956041;28;20055;-55
2021/05/13 07:23:27;;;;;;;19.30;13.82;;;;;;;12.71;69.09;100680.81;4955425;28;20122;-53
2021/05/13 07:25:55;;;;;;;20.73;13.68;;;;;;;12.74;69.48;100691.16;4952538;28;20043;-55
2021/05/13 07:28:23;;;;;;;21.30;13.93;;;;;;;12.75;69.71;100676.41;4954361;28;20043;-55
2021/05/13 07:30:51;;;;;;;21.38;13.55;;;;;;;12.79;69.21;100673.91;4956520;28;20465;-56
2021/05/13 07:33:19;;;;;;;18.70;13.38;;;;;;;12.83;68.43;100676.91;4955386;28;20427;-55
2021/05/13 07:35:47;;;;;;;19.00;13.73;;;;;;;12.86;68.60;100681.78;4946543;29;20075;-56
2021/05/13 07:38:14;;;;;;;21.08;13.90;;;;;;;12.87;68.64;100677.94;4954687;28;20043;-56
2021/05/13 07:40:42;;;;;;;22.83;14.70;;;;;;;12.90;68.99;100674.66;4954424;28;20063;-55
2021/05/13 07:43:10;;;;;;;18.00;10.80;;;;;;;12.95;68.22;100674.59;4955465;28;20063;-54
2021/05/13 07:45:42;;;;;;;19.98;13.57;;;;;;;13.00;68.36;100672.63;4954766;28;20047;-56
2021/05/13 07:48:11;;;;;;;9.73;5.45;;;;;;;13.20;70.43;100674.38;4955133;28;20043;-55
2021/05/13 07:50:39;;;;;;;14.25;9.63;;;;;;;13.39;69.91;100668.16;4954725;28;20405;-56
2021/05/13 07:53:07;;;;;;;25.63;15.30;;;;;;;13.31;68.35;100677.03;4954526;28;20055;-56
2021/05/13 07:55:35;;;;;;;21.95;15.00;;;;;;;13.24;65.88;100669.13;4954057;28;20380;-53
2021/05/13 07:58:03;;;;;;;16.85;11.60;;;;;;;13.25;64.70;100668.00;4954654;28;20051;-57
2021/05/13 08:00:31;;;;;;;18.25;11.77;;;;;;;13.34;65.04;100668.22;4954224;28;20106;-53
2021/05/13 08:02:58;;;;;;;19.13;9.23;;;;;;;13.34;64.36;100662.75;4955215;28;20094;-53
2021/05/13 08:05:26;;;;;;;21.30;12.95;;;;;;;13.37;64.40;100667.63;4954728;28;20051;-52
2021/05/13 08:07:54;;;;;;;17.55;9.70;;;;;;;13.40;63.47;100665.16;4953542;28;20058;-53
2021/05/13 08:10:21;;;;;;;20.55;10.98;;;;;;;13.56;66.21;100668.50;4953895;28;20066;-55
2021/05/13 08:12:49;;;;;;;23.70;16.85;;;;;;;13.55;65.37;100672.38;4954406;28;20087;-54
2021/05/13 08:15:17;;;;;;;19.77;14.75;;;;;;;13.54;65.64;100662.53;4953776;28;20036;-52
2021/05/13 08:17:45;;;;;;;18.02;10.38;;;;;;;13.71;67.75;100678.47;4954549;28;20051;-53
2021/05/13 08:20:15;;;;;;;16.70;12.55;;;;;;;13.64;61.14;100670.63;4954364;28;20054;-52
2021/05/13 08:22:44;;;;;;;22.60;14.20;;;;;;;13.64;61.60;100667.06;4953813;28;20498;-51
2021/05/13 08:25:15;;;;;;;19.67;11.70;;;;;;;13.75;63.70;100670.47;4953981;28;20098;-51
2021/05/13 08:27:42;;;;;;;26.23;11.75;;;;;;;13.76;62.71;100666.66;4954054;28;20039;-53
2021/05/13 08:30:10;;;;;;;21.05;12.27;;;;;;;13.82;63.54;100668.19;4954595;28;20039;-53
2021/05/13 08:32:38;;;;;;;23.80;10.38;;;;;;;13.85;63.84;100670.34;4954485;28;20051;-52
2021/05/13 08:35:06;;;;;;;20.50;11.30;;;;;;;13.91;63.33;100669.19;4954087;28;20055;-53
2021/05/13 08:37:34;;;;;;;18.02;12.05;;;;;;;13.88;62.85;100664.31;4953795;28;20091;-51
2021/05/13 08:40:02;;;;;;;20.17;13.15;;;;;;;13.88;60.90;100658.81;4954145;28;20083;-52
2021/05/13 08:42:30;;;;;;;19.48;11.35;;;;;;;13.92;59.95;100654.38;4954562;28;20055;-52
2021/05/13 08:44:58;;;;;;;20.08;12.65;;;;;;;14.07;60.76;100650.63;4954706;28;20107;-55
2021/05/13 08:47:25;;;;;;;20.52;9.68;;;;;;;14.18;59.92;100651.28;4957304;29;20077;-53
2021/05/13 08:49:53;;;;;;;20.58;9.80;;;;;;;14.22;60.68;100646.84;4958971;28;20035;-55
2021/05/13 08:52:25;;;;;;;19.13;10.20;;;;;;;14.20;60.33;100646.31;4958080;28;20051;-56
2021/05/13 08:54:55;;;;;;;16.58;8.40;;;;;;;14.24;61.91;100645.44;4957329;28;20066;-54
2021/05/13 08:57:23;;;;;;;19.25;10.20;;;;;;;14.27;60.48;100649.50;4954220;28;20051;-55
2021/05/13 08:59:51;;;;;;;22.52;9.20;;;;;;;14.35;63.45;100646.09;4954165;28;20039;-52
2021/05/13 09:02:19;;;;;;;25.55;9.82;;;;;;;14.54;63.93;100648.03;4954038;28;20045;-53
2021/05/13 09:04:51;;;;;;;14.48;8.80;;;;;;;14.72;56.79;100638.97;4953777;28;20058;-53
2021/05/13 09:07:28;;;;;;;19.98;8.52;;;;;;;14.88;57.20;100637.56;4953547;28;20035;-50
2021/05/13 09:09:56;;;;;;;16.17;9.43;;;;;;;14.99;55.41;100637.41;4947735;29;20051;-55
2021/05/13 09:12:31;;;;;;;16.67;9.30;;;;;;;14.99;53.37;100631.91;4953958;28;20057;-54
2021/05/13 09:15:03;;;;;;;15.85;7.88;;;;;;;14.94;52.18;100635.56;4947514;29;20047;-52
2021/05/13 09:17:30;;;;;;;17.42;5.97;;;;;;;14.96;55.12;100627.00;4953654;28;20055;-52
2021/05/13 09:20:00;;;;;;;13.68;5.72;;;;;;;14.93;55.79;100630.34;4950329;28;20063;-54
2021/05/13 09:22:30;;;;;;;13.65;6.18;;;;;;;14.88;50.87;100626.59;4952868;29;20047;-54
2021/05/13 09:25:07;;;;;;;12.75;5.50;;;;;;;14.92;51.11;100632.28;4953182;28;20101;-53
2021/05/13 09:27:42;;;;;;;15.88;6.20;;;;;;;14.97;53.08;100628.66;4953656;28;20047;-53
2021/05/13 09:30:20;;;;;;;12.90;4.88;;;;;;;14.96;49.56;100621.53;4953852;28;20098;-56
2021/05/13 09:32:50;;;;;;;12.98;4.93;;;;;;;14.97;52.76;100629.47;4953878;28;20078;-52
2021/05/13 09:35:23;;;;;;;14.20;5.30;;;;;;;15.14;52.33;100623.38;4953126;28;20054;-53
2021/05/13 09:37:53;;;;;;;13.18;5.78;;;;;;;15.19;52.66;100622.47;4952127;29;20046;-54
2021/05/13 09:40:23;;;;;;;9.75;4.88;;;;;;;15.15;51.53;100618.69;4951506;28;20059;-55
2021/05/13 09:43:08;;;;;;;15.40;6.88;;;;;;;15.12;50.42;100611.88;4953633;28;20099;-52
2021/05/13 09:45:52;;;;;;;11.53;6.13;;;;;;;15.15;51.56;100611.28;4950696;29;20055;-52
2021/05/13 09:48:49;;;;;;;11.63;4.15;;;;;;;15.19;57.56;100604.06;4953379;28;20098;-54
2021/05/13 09:51:21;;;;;;;10.05;3.80;;;;;;;15.32;53.07;100606.00;4951173;29;20051;-53
2021/05/13 09:53:50;;;;;;;13.65;4.38;;;;;;;15.40;50.78;100603.69;4951085;29;20066;-56
2021/05/13 09:56:28;;;;;;;12.63;4.75;;;;;;;15.33;47.74;100599.41;4950776;29;20051;-53
2021/05/13 09:58:57;;;;;;;11.77;4.70;;;;;;;15.39;46.18;100604.78;4951138;29;20051;-53
2021/05/13 10:01:45;;;;;;;12.32;5.55;;;;;;;15.36;50.32;100602.66;4951017;29;20129;-54
2021/05/13 10:04:13;;;;;;;19.85;6.60;;;;;;;15.40;50.49;100603.69;4966721;28;20051;-55
2021/05/13 10:06:41;;;;;;;12.25;5.60;;;;;;;15.41;45.97;100603.34;4951102;29;20039;-52
2021/05/13 10:09:09;;;;;;;10.65;4.85;;;;;;;15.48;46.55;100605.69;4951285;29;20051;-54
2021/05/13 10:11:37;;;;;;;13.10;5.50;;;;;;;15.49;46.03;100604.56;4967022;28;20047;-52
2021/05/13 10:14:05;;;;;;;16.20;5.95;;;;;;;15.53;51.40;100602.84;4950790;29;20083;-49
2021/05/13 10:16:34;;;;;;;15.38;5.50;;;;;;;15.82;49.87;100601.72;4966391;28;20122;-55
2021/05/13 10:19:14;;;;;;;16.50;5.32;;;;;;;15.91;48.46;100599.84;4966345;28;20166;-53
2021/05/13 10:21:42;;;;;;;20.85;5.75;;;;;;;15.95;51.92;100592.63;4950888;29;20063;-55
2021/05/13 10:24:13;;;;;;;16.65;5.53;;;;;;;16.01;49.72;100590.56;4951097;29;20048;-52
2021/05/13 10:26:45;;;;;;;18.10;4.78;;;;;;;16.03;51.41;100583.63;4950094;29;20082;-55
2021/05/13 10:29:22;;;;;;;9.98;4.80;;;;;;;15.96;47.70;100583.25;4953426;28;20479;-56
2021/05/13 10:32:17;;;;;;;12.35;4.88;;;;;;;15.93;44.17;100581.13;4955666;28;20046;-55
2021/05/13 10:34:51;;;;;;;12.20;4.55;;;;;;;16.08;44.66;100579.97;4956203;28;20086;-54
2021/05/13 10:37:39;;;;;;;9.55;4.13;;;;;;;16.13;43.17;100572.41;4955488;29;20046;-53
2021/05/13 10:40:26;;;;;;;9.82;4.43;;;;;;;16.28;40.77;100573.94;4955739;28;20070;-54
2021/05/13 10:43:07;;;;;;;13.88;4.25;;;;;;;16.43;43.25;100580.19;4949498;29;20036;-55
2021/05/13 10:45:44;;;;;;;10.88;4.38;;;;;;;16.47;42.03;100564.72;4955887;28;20062;-55
2021/05/13 10:48:17;;;;;;;14.60;4.35;;;;;;;16.43;41.19;100583.78;4955664;28;20090;-56
2021/05/13 10:51:02;;;;;;;10.75;4.80;;;;;;;16.40;40.04;100576.97;4956138;28;20043;-52
2021/05/13 10:53:45;;;;;;;10.05;4.32;;;;;;;16.28;39.78;100573.94;4955041;29;20047;-52
2021/05/13 10:56:28;;;;;;;9.77;3.90;;;;;;;16.12;39.62;100565.28;4948436;29;20050;-53
2021/05/13 10:59:05;;;;;;;13.40;4.03;;;;;;;16.11;39.66;100568.34;4955815;28;20035;-52
2021/05/13 11:01:48;;;;;;;11.60;3.80;;;;;;;16.14;40.92;100568.53;4955579;28;20039;-54
2021/05/13 11:04:22;;;;;;;10.57;4.10;;;;;;;16.25;45.71;100565.53;4955489;28;20071;-52
2021/05/13 11:07:00;;;;;;;9.85;3.95;;;;;;;16.33;41.75;100559.28;4955643;28;20441;-48
2021/05/13 11:12:23;;;;;;;13.05;4.60;;;;;;;16.74;42.54;100552.72;4955699;28;20050;-54
2021/05/13 11:20:31;;;;;;;12.88;4.10;;;;;;;16.88;44.59;100552.66;4955815;28;20035;-50
2021/05/13 11:23:13;;;;;;;11.15;4.18;;;;;;;17.01;47.54;100538.81;4970602;28;20047;-51
2021/05/13 11:26:11;;;;;;;11.15;3.78;;;;;;;17.06;48.07;100546.09;4943770;29;20051;-51
2021/05/13 11:28:41;;;;;;;11.50;4.75;;;;;;;16.91;39.29;100541.00;4954262;29;20141;-55
2021/05/13 11:31:20;;;;;;;9.52;4.28;;;;;;;16.83;39.99;100539.84;4955062;28;20446;-51
2021/05/13 11:33:56;;;;;;;8.77;3.53;;;;;;;16.90;43.49;100537.44;4955139;28;20051;-54
2021/05/13 11:36:36;;;;;;;;;;;;;;;16.98;49.66;100533.09;4956050;28;20047;-53
2021/05/13 11:39:17;;;;;;;9.60;3.50;;;;;;;16.94;45.37;100535.69;4955581;28;19922;-51
2021/05/13 11:41:49;;;;;;;9.60;3.40;;;;;;;16.97;46.20;100534.25;4954561;28;20110;-52
2021/05/13 11:44:21;;;;;;;10.90;3.70;;;;;;;16.97;42.72;100535.06;4955157;28;20047;-51
2021/05/13 11:46:52;;;;;;;6.40;3.28;;;;;;;16.92;39.66;100532.44;4953739;28;20051;-51
2021/05/13 11:49:21;;;;;;;7.72;3.10;;;;;;;16.95;42.09;100526.28;4955129;28;20035;-52
2021/05/13 11:51:48;;;;;;;10.57;3.40;;;;;;;16.90;38.45;100523.69;4954090;28;20463;-55